createdAt,value
2022-10-12T00:01:16.249Z,79.31
2022-10-12T00:03:42.488Z,79.58
2022-10-12T00:06:08.691Z,80.00
2022-10-12T00:08:34.887Z,79.92
2022-10-12T00:11:01.176Z,79.91
2022-10-12T00:13:27.449Z,79.58
2022-10-12T00:15:53.690Z,79.53
2022-10-12T00:18:19.941Z,79.34
2022-10-12T00:20:46.129Z,79.63
2022-10-12T00:23:12.315Z,79.92
2022-10-12T00:25:38.573Z,80.87
2022-10-12T00:28:04.781Z,80.95
2022-10-12T00:30:31.035Z,80.71
2022-10-12T00:32:57.377Z,81.97
2022-10-12T00:35:23.564Z,82.30
2022-10-12T00:37:49.834Z,82.33
2022-10-12T00:40:16.017Z,81.41
2022-10-12T00:42:42.200Z,81.64
2022-10-12T00:45:08.378Z,81.67
2022-10-12T00:47:34.698Z,81.46
2022-10-12T00:50:00.997Z,80.98
2022-10-12T00:52:27.186Z,81.30
2022-10-12T00:54:53.381Z,81.13
2022-10-12T00:57:19.755Z,80.78
2022-10-12T00:59:46.007Z,81.33
2022-10-12T01:02:12.198Z,81.22
2022-10-12T01:04:38.370Z,80.86
2022-10-12T01:07:04.575Z,80.66
2022-10-12T01:09:30.760Z,80.85
2022-10-12T01:11:57.910Z,81.10
2022-10-12T01:14:24.093Z,80.95
2022-10-12T01:16:50.272Z,81.46
2022-10-12T01:19:16.455Z,81.55
2022-10-12T01:21:42.634Z,81.51
2022-10-12T01:24:08.814Z,82.03
2022-10-12T01:26:34.998Z,82.78
2022-10-12T01:29:01.189Z,82.30
2022-10-12T01:31:32.237Z,81.92
2022-10-12T01:33:58.872Z,81.76
2022-10-12T01:36:25.059Z,81.68
2022-10-12T01:38:51.260Z,81.04
2022-10-12T01:41:17.452Z,81.39
2022-10-12T01:43:43.666Z,81.80
2022-10-12T01:46:09.861Z,81.56
2022-10-12T01:48:36.061Z,82.08
2022-10-12T01:51:02.253Z,82.16
2022-10-12T01:53:28.760Z,82.14
2022-10-12T01:55:54.944Z,82.59
2022-10-12T01:58:21.155Z,82.22
2022-10-12T02:00:47.456Z,81.98
2022-10-12T02:03:13.675Z,82.13
2022-10-12T02:05:39.859Z,82.25
2022-10-12T02:08:06.053Z,82.34
2022-10-12T02:10:32.236Z,81.79
2022-10-12T02:12:58.424Z,81.76
2022-10-12T02:15:24.666Z,81.61
2022-10-12T02:17:50.864Z,81.35
2022-10-12T02:20:17.056Z,81.40
2022-10-12T02:22:43.234Z,81.58
2022-10-12T02:25:10.962Z,81.65
2022-10-12T02:27:37.437Z,81.78
2022-10-12T02:30:03.834Z,82.00
2022-10-12T02:32:30.019Z,83.00
2022-10-12T02:34:56.236Z,82.93
2022-10-12T02:37:22.423Z,83.51
2022-10-12T02:39:48.675Z,84.08
2022-10-12T02:42:14.855Z,84.12
2022-10-12T02:44:41.236Z,84.23
2022-10-12T02:47:07.438Z,84.70
2022-10-12T02:49:33.614Z,84.29
2022-10-12T02:51:59.804Z,83.45
2022-10-12T02:54:25.991Z,83.47
2022-10-12T02:56:52.176Z,83.42
2022-10-12T02:59:18.660Z,83.44
2022-10-12T03:01:44.900Z,82.96
2022-10-12T03:04:11.312Z,83.34
2022-10-12T03:06:37.504Z,82.64
2022-10-12T03:09:05.104Z,83.19
2022-10-12T03:11:31.367Z,83.25
2022-10-12T03:13:57.556Z,83.34
2022-10-12T03:16:23.780Z,83.29
2022-10-12T03:18:51.317Z,83.58
2022-10-12T03:21:17.563Z,84.14
2022-10-12T03:23:43.746Z,83.42
2022-10-12T03:26:09.925Z,83.26
2022-10-12T03:28:36.149Z,83.65
2022-10-12T03:31:02.344Z,83.46
2022-10-12T03:33:28.566Z,83.72
2022-10-12T03:35:54.779Z,83.36
2022-10-12T03:38:20.984Z,83.27
2022-10-12T03:40:47.176Z,83.26
2022-10-12T03:43:13.414Z,83.32
2022-10-12T03:45:39.601Z,83.63
2022-10-12T03:48:05.792Z,83.80
2022-10-12T03:50:34.667Z,83.51
2022-10-12T03:53:00.863Z,83.27
2022-10-12T03:55:27.076Z,83.77
2022-10-12T03:57:53.256Z,83.59
2022-10-12T04:00:19.441Z,83.83
2022-10-12T04:02:45.631Z,84.23
2022-10-12T04:05:11.815Z,84.08
2022-10-12T04:07:38.208Z,84.13
2022-10-12T04:10:04.727Z,85.18
2022-10-12T04:12:30.902Z,86.30
2022-10-12T04:14:57.133Z,86.22
2022-10-12T04:17:23.472Z,86.07
2022-10-12T04:19:49.728Z,85.98
2022-10-12T04:22:16.162Z,85.95
2022-10-12T04:24:43.612Z,86.55
2022-10-12T04:27:09.882Z,86.69
2022-10-12T04:29:37.096Z,86.57
2022-10-12T04:32:03.290Z,87.41
2022-10-12T04:34:29.474Z,87.50
2022-10-12T04:36:55.659Z,87.21
2022-10-12T04:39:21.847Z,86.64
2022-10-12T04:41:48.034Z,86.04
2022-10-12T04:44:14.267Z,85.82
2022-10-12T04:46:40.480Z,86.22
2022-10-12T04:49:06.684Z,85.68
2022-10-12T04:51:32.987Z,85.59
2022-10-12T04:53:59.227Z,85.42
2022-10-12T04:56:25.410Z,84.98
2022-10-12T04:58:51.591Z,85.21
2022-10-12T05:01:18.136Z,85.17
2022-10-12T05:03:44.631Z,85.43
2022-10-12T05:06:10.871Z,85.25
2022-10-12T05:08:37.070Z,84.88
2022-10-12T05:11:03.250Z,84.98
2022-10-12T05:13:29.909Z,85.04
2022-10-12T05:15:56.109Z,85.20
2022-10-12T05:18:22.332Z,86.07
2022-10-12T05:20:57.038Z,85.76
2022-10-12T05:23:23.567Z,86.08
2022-10-12T05:25:49.747Z,85.88
2022-10-12T05:28:15.978Z,85.77
2022-10-12T05:30:42.195Z,85.41
2022-10-12T05:33:08.569Z,85.40
2022-10-12T05:35:34.855Z,85.64
2022-10-12T05:38:01.402Z,85.73
2022-10-12T05:40:28.700Z,85.97
2022-10-12T05:42:54.891Z,85.86
2022-10-12T05:45:21.354Z,86.32
2022-10-12T05:47:47.580Z,86.29
2022-10-12T05:50:13.762Z,85.96
2022-10-12T05:52:40.359Z,86.06
2022-10-12T05:55:06.896Z,86.39
2022-10-12T05:57:33.126Z,87.37
2022-10-12T05:59:59.333Z,87.14
2022-10-12T06:02:25.555Z,87.23
2022-10-12T06:04:51.744Z,87.22
2022-10-12T06:07:17.970Z,87.10
2022-10-12T06:09:44.751Z,86.78
2022-10-12T06:12:10.952Z,86.77
2022-10-12T06:14:37.143Z,86.46
2022-10-12T06:17:03.357Z,86.38
2022-10-12T06:19:29.548Z,86.55
2022-10-12T06:21:59.251Z,86.58
2022-10-12T06:24:25.434Z,86.14
2022-10-12T06:26:51.631Z,85.91
2022-10-12T06:29:17.802Z,85.70
2022-10-12T06:31:47.643Z,85.87
2022-10-12T06:34:16.741Z,85.54
2022-10-12T06:36:43.000Z,86.01
2022-10-12T06:39:09.193Z,85.88
2022-10-12T06:41:35.524Z,85.83
2022-10-12T06:44:01.711Z,84.97
2022-10-12T06:46:27.928Z,85.23
2022-10-12T06:48:54.134Z,84.94
2022-10-12T06:51:20.375Z,84.11
2022-10-12T06:53:46.565Z,83.92
2022-10-12T06:56:12.791Z,83.57
2022-10-12T06:58:39.039Z,83.12
2022-10-12T07:01:05.259Z,82.93
2022-10-12T07:03:31.433Z,83.42
2022-10-12T07:05:57.634Z,83.04
2022-10-12T07:08:23.818Z,82.76
2022-10-12T07:10:49.991Z,82.44
2022-10-12T07:13:16.185Z,82.67
2022-10-12T07:15:42.371Z,82.19
2022-10-12T07:18:08.570Z,81.80
2022-10-12T07:20:34.742Z,80.94
2022-10-12T07:23:00.918Z,80.56
2022-10-12T07:25:27.112Z,79.90
2022-10-12T07:27:53.358Z,80.14
2022-10-12T07:30:19.618Z,80.47
2022-10-12T07:32:46.950Z,79.93
2022-10-12T07:35:13.205Z,79.27
2022-10-12T07:37:39.699Z,79.43
2022-10-12T07:40:06.122Z,78.97
2022-10-12T07:42:32.370Z,79.08
2022-10-12T07:44:58.619Z,78.69
2022-10-12T07:47:24.806Z,77.95
2022-10-12T07:49:51.084Z,79.58
2022-10-12T07:52:17.528Z,78.89
2022-10-12T07:54:43.819Z,78.38
2022-10-12T07:57:10.094Z,78.44
2022-10-12T07:59:36.347Z,78.60
2022-10-12T08:02:02.731Z,78.07
2022-10-12T08:04:29.026Z,77.27
2022-10-12T08:06:55.490Z,77.51
2022-10-12T08:09:21.727Z,76.65
2022-10-12T08:11:47.998Z,75.83
2022-10-12T08:14:14.712Z,75.35
2022-10-12T08:16:40.993Z,75.54
2022-10-12T08:19:07.255Z,74.77
2022-10-12T08:21:33.500Z,75.18
2022-10-12T08:23:59.758Z,74.58
2022-10-12T08:26:26.023Z,74.66
2022-10-12T08:28:52.728Z,74.79
2022-10-12T08:31:19.380Z,75.34
2022-10-12T08:33:45.711Z,73.97
2022-10-12T08:36:11.950Z,73.30
2022-10-12T08:38:43.333Z,74.05
2022-10-12T08:41:09.647Z,72.77
2022-10-12T08:43:39.024Z,73.04
2022-10-12T08:46:05.276Z,72.76
2022-10-12T08:48:31.541Z,73.17
2022-10-12T08:53:29.087Z,72.18
2022-10-12T08:55:56.768Z,72.06
2022-10-12T08:58:23.016Z,71.02
2022-10-12T09:00:49.308Z,70.65
2022-10-12T09:03:15.579Z,70.82
2022-10-12T09:05:41.890Z,71.50
2022-10-12T09:08:08.168Z,70.49
2022-10-12T09:10:34.507Z,69.19
2022-10-12T09:13:00.799Z,69.61
2022-10-12T09:15:27.060Z,67.94
2022-10-12T09:17:53.306Z,68.07
2022-10-12T09:20:19.743Z,68.75
2022-10-12T09:22:45.987Z,68.48
2022-10-12T09:25:12.511Z,69.11
2022-10-12T09:27:42.924Z,67.71
2022-10-12T09:30:11.285Z,68.14
2022-10-12T09:32:37.540Z,68.08
2022-10-12T09:35:04.208Z,66.90
2022-10-12T09:37:30.468Z,66.99
2022-10-12T09:39:56.741Z,66.76
2022-10-12T09:42:23.012Z,66.64
2022-10-12T09:44:49.374Z,66.05
2022-10-12T09:47:15.647Z,64.77
2022-10-12T09:49:41.912Z,64.26
2022-10-12T09:52:08.175Z,64.63
2022-10-12T09:54:34.498Z,63.64
2022-10-12T09:57:00.769Z,63.36
2022-10-12T09:59:27.382Z,63.02
2022-10-12T10:01:53.648Z,63.82
2022-10-12T10:04:20.051Z,63.60
2022-10-12T10:06:46.356Z,63.22
2022-10-12T10:09:12.594Z,62.74
2022-10-12T10:11:39.511Z,62.18
2022-10-12T10:14:05.785Z,61.19
2022-10-12T10:16:32.094Z,61.80
2022-10-12T10:18:58.371Z,62.13
2022-10-12T10:21:24.610Z,61.00
2022-10-12T10:23:51.248Z,60.28
2022-10-12T10:28:44.749Z,59.91
2022-10-12T10:31:11.047Z,59.53
2022-10-12T10:33:37.506Z,55.91
2022-10-12T10:36:04.140Z,56.31
2022-10-12T10:38:30.473Z,54.00
2022-10-12T10:40:57.194Z,52.96
2022-10-12T10:43:23.768Z,54.02
2022-10-12T10:45:50.034Z,52.39
2022-10-12T10:48:16.311Z,51.77
2022-10-12T10:50:42.559Z,52.63
2022-10-12T10:53:08.892Z,52.54
2022-10-12T10:55:35.146Z,52.09
2022-10-12T10:58:01.407Z,53.08
2022-10-12T11:00:43.292Z,53.36
2022-10-12T11:03:09.991Z,52.85
2022-10-12T11:05:36.333Z,52.67
2022-10-12T11:08:02.615Z,53.67
2022-10-12T11:10:29.125Z,52.61
2022-10-12T11:12:55.384Z,52.49
2022-10-12T11:15:21.935Z,52.32
2022-10-12T11:17:48.291Z,52.41
2022-10-12T11:20:17.341Z,52.81
2022-10-12T11:22:46.022Z,52.62
2022-10-12T11:25:12.279Z,52.59
2022-10-12T11:27:38.575Z,52.57
2022-10-12T11:30:11.636Z,51.50
2022-10-12T11:32:37.946Z,52.42
2022-10-12T11:35:04.239Z,51.37
2022-10-12T11:37:30.625Z,51.24
2022-10-12T11:39:56.872Z,51.95
2022-10-12T11:42:23.228Z,51.26
2022-10-12T11:44:49.490Z,51.68
2022-10-12T11:47:15.781Z,52.55
2022-10-12T11:49:42.044Z,52.70
2022-10-12T11:52:08.325Z,51.42
2022-10-12T11:54:34.590Z,52.02
2022-10-12T11:57:00.841Z,50.74
2022-10-12T11:59:27.157Z,51.62
2022-10-12T12:01:53.406Z,52.71
2022-10-12T12:04:50.516Z,52.33
2022-10-12T12:07:07.126Z,52.38
2022-10-12T12:09:33.394Z,51.49
2022-10-12T12:11:59.638Z,52.38
2022-10-12T12:14:25.913Z,53.04
2022-10-12T12:16:52.174Z,52.46
2022-10-12T12:19:18.513Z,51.78
2022-10-12T12:21:44.780Z,51.88
2022-10-12T12:24:11.054Z,50.87
2022-10-12T12:26:37.316Z,50.83
2022-10-12T12:29:03.585Z,51.89
2022-10-12T12:31:30.442Z,51.58
2022-10-12T12:33:56.707Z,51.75
2022-10-12T12:36:22.958Z,51.65
2022-10-12T12:38:49.305Z,51.65
2022-10-12T12:41:15.611Z,50.70
2022-10-12T12:43:41.862Z,50.87
2022-10-12T12:46:08.247Z,51.34
2022-10-12T12:48:34.527Z,50.55
2022-10-12T12:51:00.919Z,50.99
2022-10-12T12:53:27.192Z,51.39
2022-10-12T12:55:53.469Z,51.26
2022-10-12T12:58:19.878Z,50.69
2022-10-12T13:03:18.970Z,50.56
2022-10-12T13:05:45.244Z,51.11
2022-10-12T13:08:11.522Z,50.46
2022-10-12T13:10:37.782Z,50.54
2022-10-12T13:13:04.507Z,50.07
2022-10-12T13:15:30.753Z,50.85
2022-10-12T13:17:57.649Z,50.22
2022-10-12T13:20:23.932Z,49.29
2022-10-12T13:22:50.398Z,50.93
2022-10-12T13:25:16.775Z,49.61
2022-10-12T13:27:43.033Z,49.61
2022-10-12T13:30:09.341Z,49.86
2022-10-12T13:32:35.610Z,50.01
2022-10-12T13:35:02.367Z,50.00
2022-10-12T13:37:28.635Z,49.68
2022-10-12T13:39:56.189Z,49.73
2022-10-12T13:42:22.453Z,49.52
2022-10-12T13:44:48.759Z,49.32
2022-10-12T13:47:15.060Z,49.28
2022-10-12T13:49:41.324Z,49.62
2022-10-12T13:52:07.590Z,49.65
2022-10-12T13:54:33.859Z,50.12
2022-10-12T13:57:00.197Z,49.94
2022-10-12T13:59:26.595Z,50.27
2022-10-12T14:01:52.848Z,50.35
2022-10-12T14:04:19.158Z,50.34
2022-10-12T14:06:45.426Z,50.50
2022-10-12T14:09:11.699Z,51.09
2022-10-12T14:11:37.980Z,51.08
2022-10-12T14:14:04.354Z,50.76
2022-10-12T14:16:30.719Z,51.73
2022-10-12T14:18:56.993Z,51.56
2022-10-12T14:21:23.573Z,51.45
2022-10-12T14:23:49.877Z,51.52
2022-10-12T14:26:16.191Z,52.04
2022-10-12T14:28:42.561Z,52.10
2022-10-12T14:31:08.852Z,52.11
2022-10-12T14:33:35.128Z,51.99
2022-10-12T14:36:01.397Z,52.25
2022-10-12T14:38:27.651Z,52.21
2022-10-12T14:40:53.911Z,52.40
2022-10-12T14:43:20.479Z,52.92
2022-10-12T14:45:46.751Z,53.06
2022-10-12T14:48:13.006Z,52.95
2022-10-12T14:50:39.268Z,52.72
2022-10-12T14:53:06.541Z,52.94
2022-10-12T14:55:32.860Z,53.16
2022-10-12T14:57:59.676Z,53.56
2022-10-12T15:00:25.938Z,54.00
2022-10-12T15:02:52.194Z,53.68
2022-10-12T15:05:18.611Z,53.98
2022-10-12T15:07:46.805Z,54.73
2022-10-12T15:10:13.681Z,54.56
2022-10-12T15:12:40.015Z,54.65
2022-10-12T15:15:06.309Z,55.09
2022-10-12T15:17:32.590Z,55.06
2022-10-12T15:19:58.861Z,54.86
2022-10-12T15:22:25.153Z,55.32
2022-10-12T15:24:51.411Z,55.62
2022-10-12T15:27:17.668Z,55.82
2022-10-12T15:29:43.957Z,55.86
2022-10-12T15:32:10.223Z,56.23
2022-10-12T15:34:36.475Z,56.77
2022-10-12T15:37:06.562Z,56.79
2022-10-12T15:39:35.212Z,56.91
2022-10-12T15:42:01.475Z,57.37
2022-10-12T15:44:27.735Z,57.91
2022-10-12T15:46:53.986Z,57.88
2022-10-12T15:49:21.771Z,58.24
2022-10-12T15:51:48.043Z,58.09
2022-10-12T15:54:14.328Z,58.40
2022-10-12T15:56:40.597Z,58.50
2022-10-12T15:59:06.862Z,58.71
2022-10-12T16:01:33.144Z,59.00
2022-10-12T16:03:59.415Z,59.07
2022-10-12T16:06:29.319Z,59.42
2022-10-12T16:08:55.604Z,58.90
2022-10-12T16:11:21.909Z,58.65
2022-10-12T16:13:55.449Z,58.86
2022-10-12T16:16:22.675Z,58.51
2022-10-12T16:18:48.964Z,59.23
2022-10-12T16:21:15.243Z,58.95
2022-10-12T16:23:41.532Z,58.98
2022-10-12T16:26:07.832Z,58.95
2022-10-12T16:28:34.130Z,59.19
2022-10-12T16:31:00.446Z,59.26
2022-10-12T16:33:30.113Z,59.36
2022-10-12T16:35:56.548Z,59.19
2022-10-12T16:38:22.797Z,59.59
2022-10-12T16:40:49.676Z,59.50
2022-10-12T16:43:15.932Z,60.06
2022-10-12T16:45:42.186Z,60.32
2022-10-12T16:48:08.440Z,60.72
2022-10-12T16:50:39.801Z,60.65
2022-10-12T16:53:06.073Z,61.44
2022-10-12T16:55:32.345Z,60.99
2022-10-12T16:57:58.653Z,61.58
2022-10-12T17:00:25.020Z,61.67
2022-10-12T17:02:55.272Z,60.71
2022-10-12T17:05:23.618Z,61.55
2022-10-12T17:07:49.876Z,61.05
2022-10-12T17:10:16.196Z,61.29
2022-10-12T17:12:42.454Z,61.66
2022-10-12T17:15:08.711Z,61.59
2022-10-12T17:17:35.014Z,62.32
2022-10-12T17:22:28.883Z,63.83
2022-10-12T17:24:55.152Z,63.98
2022-10-12T17:27:21.418Z,63.98
2022-10-12T17:29:47.743Z,64.01
2022-10-12T17:32:14.313Z,64.45
2022-10-12T17:34:40.891Z,64.71
2022-10-12T17:37:07.174Z,64.89
2022-10-12T17:39:33.437Z,65.07
2022-10-12T17:41:59.707Z,65.65
2022-10-12T17:44:26.071Z,66.02
2022-10-12T17:46:52.323Z,66.20
2022-10-12T17:49:23.523Z,66.17
2022-10-12T17:51:51.035Z,66.36
2022-10-12T17:54:17.286Z,66.81
2022-10-12T17:56:43.544Z,66.77
2022-10-12T17:59:09.931Z,67.07
2022-10-12T18:01:36.219Z,66.94
2022-10-12T18:04:02.527Z,67.37
2022-10-12T18:06:29.014Z,67.19
2022-10-12T18:08:56.560Z,67.85
2022-10-12T18:11:22.818Z,67.29
2022-10-12T18:13:49.078Z,67.73
2022-10-12T18:16:15.321Z,67.80
2022-10-12T18:18:41.927Z,67.79
2022-10-12T18:21:08.200Z,68.33
2022-10-12T18:23:34.446Z,68.26
2022-10-12T18:26:00.702Z,68.45
2022-10-12T18:28:27.004Z,68.66
2022-10-12T18:30:53.313Z,68.53
2022-10-12T18:33:19.567Z,68.89
2022-10-12T18:35:45.849Z,69.06
2022-10-12T18:38:12.097Z,69.56
2022-10-12T18:40:41.987Z,70.00
2022-10-12T18:43:08.694Z,70.05
2022-10-12T18:45:34.972Z,69.98
2022-10-12T18:48:01.214Z,70.40
2022-10-12T18:50:27.467Z,70.66
2022-10-12T18:52:53.719Z,70.42
2022-10-12T18:55:19.974Z,70.79
2022-10-12T18:57:46.226Z,70.90
2022-10-12T19:00:12.481Z,71.11
2022-10-12T19:02:38.764Z,71.41
2022-10-12T19:05:05.033Z,71.34
2022-10-12T19:07:31.380Z,72.23
2022-10-12T19:09:57.687Z,71.87
2022-10-12T19:12:23.938Z,71.69
2022-10-12T19:14:50.196Z,71.82
2022-10-12T19:17:16.457Z,71.99
2022-10-12T19:19:42.727Z,72.73
2022-10-12T19:22:08.970Z,73.14
2022-10-12T19:24:35.224Z,73.55
2022-10-12T19:27:01.487Z,73.50
2022-10-12T19:29:27.731Z,73.45
2022-10-12T19:31:53.981Z,73.32
2022-10-12T19:34:20.245Z,73.39
2022-10-12T19:36:46.490Z,73.36
2022-10-12T19:39:12.743Z,73.39
2022-10-12T19:41:39.001Z,73.57
2022-10-12T19:44:05.257Z,73.49
2022-10-12T19:46:31.716Z,73.84
2022-10-12T19:48:57.977Z,73.83
2022-10-12T19:51:24.309Z,73.71
2022-10-12T19:53:50.555Z,73.72
2022-10-12T19:56:16.816Z,73.93
2022-10-12T19:58:43.077Z,73.68
2022-10-12T20:01:09.440Z,73.79
2022-10-12T20:03:35.954Z,74.00
2022-10-12T20:06:05.956Z,73.94
2022-10-12T20:08:32.912Z,73.89
2022-10-12T20:10:59.181Z,74.01
2022-10-12T20:13:25.505Z,74.24
2022-10-12T20:15:51.753Z,74.49
2022-10-12T20:18:17.994Z,74.42
2022-10-12T20:20:44.244Z,75.04
2022-10-12T20:23:10.517Z,75.19
2022-10-12T20:25:36.795Z,75.30
2022-10-12T20:28:03.995Z,75.39
2022-10-12T20:30:30.190Z,75.99
2022-10-12T20:32:56.584Z,76.50
2022-10-12T20:35:22.830Z,76.23
2022-10-12T20:37:49.073Z,75.98
2022-10-12T20:40:15.327Z,76.42
2022-10-12T20:42:41.587Z,76.37
2022-10-12T20:45:09.428Z,76.28
2022-10-12T20:47:35.674Z,76.18
2022-10-12T20:50:02.163Z,76.53
2022-10-12T20:52:28.457Z,76.65
2022-10-12T20:54:54.747Z,78.44
2022-10-12T20:57:21.011Z,77.79
2022-10-12T20:59:48.902Z,77.63
2022-10-12T21:02:15.577Z,78.17
2022-10-12T21:04:42.296Z,78.27
2022-10-12T21:07:08.564Z,77.81
2022-10-12T21:09:34.820Z,77.82
2022-10-12T21:12:01.080Z,78.11
2022-10-12T21:14:27.322Z,77.84
2022-10-12T21:16:53.571Z,77.93
2022-10-12T21:19:19.816Z,78.51
2022-10-12T21:21:49.074Z,78.12
2022-10-12T21:24:15.387Z,78.33
2022-10-12T21:26:41.661Z,80.60
2022-10-12T21:29:07.908Z,79.68
2022-10-12T21:31:34.189Z,79.58
2022-10-12T21:34:01.285Z,79.42
2022-10-12T21:36:27.527Z,79.64
2022-10-12T21:38:53.799Z,79.23
2022-10-12T21:41:20.165Z,80.09
2022-10-12T21:43:46.451Z,80.19
2022-10-12T21:46:12.696Z,80.12
2022-10-12T21:48:38.963Z,79.26
2022-10-12T21:51:05.514Z,80.19
2022-10-12T21:53:31.825Z,79.43
2022-10-12T21:55:58.080Z,79.14
2022-10-12T21:58:24.326Z,79.38
2022-10-12T22:00:50.617Z,79.53
2022-10-12T22:03:17.034Z,79.87
2022-10-12T22:05:43.290Z,79.30
2022-10-12T22:08:09.576Z,79.13
2022-10-12T22:10:36.099Z,79.25
2022-10-12T22:13:02.346Z,79.11
2022-10-12T22:15:28.621Z,79.66
2022-10-12T22:17:54.880Z,79.76
2022-10-12T22:20:21.169Z,79.93
2022-10-12T22:22:47.425Z,80.14
2022-10-12T22:25:13.817Z,79.79
2022-10-12T22:27:40.074Z,81.52
2022-10-12T22:30:06.357Z,81.07
2022-10-12T22:32:32.594Z,80.67
2022-10-12T22:34:59.085Z,81.02
2022-10-12T22:37:25.353Z,81.26
2022-10-12T22:39:51.691Z,82.21
2022-10-12T22:42:18.195Z,82.07
2022-10-12T22:44:44.703Z,81.52
2022-10-12T22:47:10.986Z,81.48
2022-10-12T22:49:37.258Z,81.34
2022-10-12T22:52:03.510Z,81.93
2022-10-12T22:54:29.788Z,83.53
2022-10-12T22:56:56.088Z,83.76
2022-10-12T22:59:22.383Z,84.10
2022-10-12T23:01:48.717Z,84.61
2022-10-12T23:04:14.998Z,84.50
2022-10-12T23:06:41.253Z,84.34
2022-10-12T23:09:07.521Z,85.94
2022-10-12T23:11:33.971Z,86.31
2022-10-12T23:14:00.268Z,86.44
2022-10-12T23:16:26.561Z,85.75
2022-10-12T23:18:58.051Z,85.06
2022-10-12T23:21:25.436Z,84.27
2022-10-12T23:23:51.682Z,84.88
2022-10-12T23:26:17.948Z,85.95
2022-10-12T23:28:44.284Z,85.57
2022-10-12T23:31:10.645Z,85.04
2022-10-12T23:33:36.943Z,84.37
2022-10-12T23:36:03.205Z,83.86
2022-10-12T23:38:29.460Z,83.80
2022-10-12T23:40:58.751Z,83.24
2022-10-12T23:43:25.994Z,83.17
2022-10-12T23:45:52.372Z,83.43
2022-10-12T23:48:18.621Z,83.25
2022-10-12T23:50:46.423Z,83.69
2022-10-12T23:53:12.678Z,83.39
2022-10-12T23:55:38.955Z,84.23
2022-10-12T23:58:05.194Z,83.42
